GMTN  Saniat Rmel  Airport

Morocco

Add Bookmark
ICAO GMTN
IATA TTU
Type Airport
Status Operational
Latitude
35° 35' 39" N
35.594299
Longitude
5° 19' 12" W
-5.320020
Local (DST + 1) UTC (GMT 0)
Feb 7, 2016 05:41 Feb 7, 2016 05:41
Sunrise-Sunset Local UTC
Begin Civil Twilight 06:48 06:48
Sunrise 07:14 07:14
Sunset 05:56 17:56
End Civil Twilight 06:22 18:22
VFR
VFR
MVFR
MVFR
IFR
IFR
LIFR
LIFR
Unknown
Unavailable

Current Weather

METAR Observed
GMTN 070500Z AUTO 24014KT R24///// /// 17/09 Q1022 Sun, Feb 7, 2016 @ 05:00 UTC
(41 Minutes ago)
Wind Conditions
240° at 14 knots (26 kph)
  • No significant weather
Temperatures Readings Precipitation
Current Temp
17°C
63°F
Dewpoint
9°C
48°F
Humidity 59%
Altimeter 30.18" Hg
Sea Level Pressure 1,022 mb
Field Elevation
10 m
33 ft
None Recorded

Additional weather within a 92.6km radius of GMTN

Map ICAO Location
GMTT 55.9km W/NW (285°)
LXGB 62km N (360°)
VFR
VFR
MVFR
MVFR
IFR
IFR
LIFR
LIFR
Unknown
Unavailable
-
-

CheckWX.com is intended as a tool to help pilots better visualize weather data. It is not intended as a substitute for an official weather briefing obtained from a Flight Service Station. CheckWX.com does not meet the FAA requirements for an official pre-flight weather briefing. Therefore, it's important that pilots still call and obtain an official FSS pre-flight weather briefing.

© 2007-2016 CheckWX.com
05:41:42 UTC